sensor_id;sensor_type;location;lat;lon;timestamp;pressure;altitude;pressure_sealevel;temperature;humidity
9690;BME280;4884;42.614;23.340;2022-08-01T00:02:27;159116.44;;;17.41;100.00
9690;BME280;4884;42.614;23.340;2022-08-01T00:04:56;159093.34;;;17.33;100.00
9690;BME280;4884;42.614;23.340;2022-08-01T00:07:22;159040.44;;;17.13;100.00
9690;BME280;4884;42.614;23.340;2022-08-01T00:09:48;159086.56;;;17.30;100.00
9690;BME280;4884;42.614;23.340;2022-08-01T00:12:13;159087.91;;;17.31;100.00
9690;BME280;4884;42.614;23.340;2022-08-01T00:14:39;159072.97;;;17.25;100.00
9690;BME280;4884;42.614;23.340;2022-08-01T00:17:04;159026.91;;;17.08;100.00
9690;BME280;4884;42.614;23.340;2022-08-01T00:19:30;159070.28;;;17.24;100.00
9690;BME280;4884;42.614;23.340;2022-08-01T00:21:56;158982.09;;;16.91;100.00
9690;BME280;4884;42.614;23.340;2022-08-01T00:24:21;159059.44;;;17.20;100.00
9690;BME280;4884;42.614;23.340;2022-08-01T00:26:46;159016.00;;;17.03;100.00
9690;BME280;4884;42.614;23.340;2022-08-01T00:29:12;159078.41;;;17.27;100.00
9690;BME280;4884;42.614;23.340;2022-08-01T00:31:37;158969.91;;;16.86;100.00
9690;BME280;4884;42.614;23.340;2022-08-01T00:34:03;158944.09;;;16.76;100.00
9690;BME280;4884;42.614;23.340;2022-08-01T00:36:28;159043.16;;;17.14;100.00
9690;BME280;4884;42.614;23.340;2022-08-01T00:38:54;158995.69;;;16.96;100.00
9690;BME280;4884;42.614;23.340;2022-08-01T00:41:19;159045.84;;;17.15;96.81
9690;BME280;4884;42.614;23.340;2022-08-01T00:43:45;159045.84;;;17.15;95.84
9690;BME280;4884;42.614;23.340;2022-08-01T00:46:10;158918.31;;;16.67;97.22
9690;BME280;4884;42.614;23.340;2022-08-01T00:48:36;158927.75;;;16.70;98.66
9690;BME280;4884;42.614;23.340;2022-08-01T00:51:03;158892.53;;;16.57;97.25
9690;BME280;4884;42.614;23.340;2022-08-01T00:53:29;158986.19;;;16.92;93.91
9690;BME280;4884;42.614;23.340;2022-08-01T00:55:56;158921.00;;;16.68;95.19
9690;BME280;4884;42.614;23.340;2022-08-01T00:58:22;158941.34;;;16.75;93.90
9690;BME280;4884;42.614;23.340;2022-08-01T01:00:48;158994.28;;;16.95;95.27
9690;BME280;4884;42.614;23.340;2022-08-01T01:03:14;158980.75;;;16.90;100.00
9690;BME280;4884;42.614;23.340;2022-08-01T01:05:55;158910.16;;;16.63;100.00
9690;BME280;4884;42.614;23.340;2022-08-01T01:08:28;158910.16;;;16.63;100.00
9690;BME280;4884;42.614;23.340;2022-08-01T01:11:04;158892.53;;;16.57;100.00
9690;BME280;4884;42.614;23.340;2022-08-01T01:13:52;158845.09;;;16.39;100.00
9690;BME280;4884;42.614;23.340;2022-08-01T01:16:19;158845.09;;;16.39;100.00
9690;BME280;4884;42.614;23.340;2022-08-01T01:18:57;158953.53;;;16.80;100.00
9690;BME280;4884;42.614;23.340;2022-08-01T01:24:40;158952.19;;;16.79;100.00
9690;BME280;4884;42.614;23.340;2022-08-01T01:27:42;158872.19;;;16.49;100.00
9690;BME280;4884;42.614;23.340;2022-08-01T01:30:10;158959.00;;;16.82;97.11
9690;BME280;4884;42.614;23.340;2022-08-01T01:32:43;158927.75;;;16.70;96.76
9690;BME280;4884;42.614;23.340;2022-08-01T01:35:23;158923.72;;;16.69;91.44
9690;BME280;4884;42.614;23.340;2022-08-01T01:37:54;158959.00;;;16.82;88.36
9690;BME280;4884;42.614;23.340;2022-08-01T01:40:22;158866.78;;;16.47;88.55
9690;BME280;4884;42.614;23.340;2022-08-01T01:42:50;158902.03;;;16.60;86.48
9690;BME280;4884;42.614;23.340;2022-08-01T01:45:17;158912.88;;;16.65;83.79
9690;BME280;4884;42.614;23.340;2022-08-01T01:47:44;158986.19;;;16.92;83.53
9690;BME280;4884;42.614;23.340;2022-08-01T01:50:11;158873.53;;;16.50;87.20
9690;BME280;4884;42.614;23.340;2022-08-01T01:52:39;158858.59;;;16.44;86.76
9690;BME280;4884;42.614;23.340;2022-08-01T01:55:07;158979.38;;;16.90;82.86
9690;BME280;4884;42.614;23.340;2022-08-01T01:57:36;158893.88;;;16.57;84.30
9690;BME280;4884;42.614;23.340;2022-08-01T02:00:03;158961.75;;;16.83;83.42
9690;BME280;4884;42.614;23.340;2022-08-01T02:02:31;158957.66;;;16.81;82.37
9690;BME280;4884;42.614;23.340;2022-08-01T02:04:58;158950.84;;;16.79;80.39
9690;BME280;4884;42.614;23.340;2022-08-01T02:07:25;159005.16;;;16.99;78.22
9690;BME280;4884;42.614;23.340;2022-08-01T02:09:52;158991.59;;;16.94;78.42
9690;BME280;4884;42.614;23.340;2022-08-01T02:12:19;158994.28;;;16.95;78.26
9690;BME280;4884;42.614;23.340;2022-08-01T02:14:48;158986.19;;;16.92;76.06
9690;BME280;4884;42.614;23.340;2022-08-01T02:17:19;158982.09;;;16.91;76.30
9690;BME280;4884;42.614;23.340;2022-08-01T02:19:46;159010.56;;;17.01;74.33
9690;BME280;4884;42.614;23.340;2022-08-01T02:22:18;159007.88;;;17.00;73.90
9690;BME280;4884;42.614;23.340;2022-08-01T02:25:24;159018.72;;;17.05;74.55
9690;BME280;4884;42.614;23.340;2022-08-01T02:28:09;159043.16;;;17.14;74.28
9690;BME280;4884;42.614;23.340;2022-08-01T02:30:43;158927.75;;;16.70;75.40
9690;BME280;4884;42.614;23.340;2022-08-01T02:33:15;159018.72;;;17.05;75.77
9690;BME280;4884;42.614;23.340;2022-08-01T02:35:42;159026.91;;;17.08;78.45
9690;BME280;4884;42.614;23.340;2022-08-01T02:38:12;159048.59;;;17.16;77.28
9690;BME280;4884;42.614;23.340;2022-08-01T02:40:41;159043.16;;;17.14;78.68
9690;BME280;4884;42.614;23.340;2022-08-01T02:43:09;158953.53;;;16.80;80.84
9690;BME280;4884;42.614;23.340;2022-08-01T02:45:39;159010.56;;;17.01;82.08
9690;BME280;4884;42.614;23.340;2022-08-01T02:48:12;158988.88;;;16.93;80.55
9690;BME280;4884;42.614;23.340;2022-08-01T02:50:42;159043.16;;;17.14;79.92
9690;BME280;4884;42.614;23.340;2022-08-01T02:53:09;158975.34;;;16.88;79.72
9690;BME280;4884;42.614;23.340;2022-08-01T02:55:38;158949.50;;;16.78;80.60
9690;BME280;4884;42.614;23.340;2022-08-01T02:58:06;159007.88;;;17.00;82.35
9690;BME280;4884;42.614;23.340;2022-08-01T03:00:33;158929.16;;;16.71;82.11
9690;BME280;4884;42.614;23.340;2022-08-01T03:02:59;158992.94;;;16.95;83.25
9690;BME280;4884;42.614;23.340;2022-08-01T03:05:27;158950.84;;;16.79;84.08
9690;BME280;4884;42.614;23.340;2022-08-01T03:07:55;158983.44;;;16.91;84.39
9690;BME280;4884;42.614;23.340;2022-08-01T03:10:22;158945.44;;;16.77;85.80
9690;BME280;4884;42.614;23.340;2022-08-01T03:12:49;158968.53;;;16.86;85.58
9690;BME280;4884;42.614;23.340;2022-08-01T03:15:16;158986.19;;;16.92;86.37
9690;BME280;4884;42.614;23.340;2022-08-01T03:17:44;158885.72;;;16.54;87.94
9690;BME280;4884;42.614;23.340;2022-08-01T03:20:15;158858.59;;;16.44;90.66
9690;BME280;4884;42.614;23.340;2022-08-01T03:22:43;158937.28;;;16.74;89.74
9690;BME280;4884;42.614;23.340;2022-08-01T03:25:12;158926.41;;;16.70;91.61
9690;BME280;4884;42.614;23.340;2022-08-01T03:27:40;158948.13;;;16.78;89.55
9690;BME280;4884;42.614;23.340;2022-08-01T03:30:07;158950.84;;;16.79;88.17
9690;BME280;4884;42.614;23.340;2022-08-01T03:32:33;158956.28;;;16.81;89.75
9690;BME280;4884;42.614;23.340;2022-08-01T03:34:59;158948.13;;;16.78;90.29
9690;BME280;4884;42.614;23.340;2022-08-01T03:37:36;158907.47;;;16.62;88.80
9690;BME280;4884;42.614;23.340;2022-08-01T03:40:08;158961.75;;;16.83;92.88
9690;BME280;4884;42.614;23.340;2022-08-01T03:42:42;158968.53;;;16.86;89.27
9690;BME280;4884;42.614;23.340;2022-08-01T03:45:11;159003.81;;;16.99;88.50
9690;BME280;4884;42.614;23.340;2022-08-01T03:47:42;158976.69;;;16.89;91.27
9690;BME280;4884;42.614;23.340;2022-08-01T03:50:10;159013.31;;;17.02;88.98
9690;BME280;4884;42.614;23.340;2022-08-01T03:52:38;159024.16;;;17.07;90.06
9690;BME280;4884;42.614;23.340;2022-08-01T03:55:06;158975.34;;;16.88;90.63
9690;BME280;4884;42.614;23.340;2022-08-01T03:57:35;159018.72;;;17.05;88.58
9690;BME280;4884;42.614;23.340;2022-08-01T04:00:02;159094.72;;;17.33;88.36
9690;BME280;4884;42.614;23.340;2022-08-01T04:02:31;159067.56;;;17.23;89.27
9690;BME280;4884;42.614;23.340;2022-08-01T04:04:56;159029.59;;;17.09;96.49
9690;BME280;4884;42.614;23.340;2022-08-01T04:07:29;159024.16;;;17.07;90.78
9690;BME280;4884;42.614;23.340;2022-08-01T04:09:55;159100.16;;;17.35;92.03
9690;BME280;4884;42.614;23.340;2022-08-01T04:12:21;159074.38;;;17.26;93.64
9690;BME280;4884;42.614;23.340;2022-08-01T04:14:47;159056.72;;;17.19;91.04
9690;BME280;4884;42.614;23.340;2022-08-01T04:17:14;159104.19;;;17.37;94.52
9690;BME280;4884;42.614;23.340;2022-08-01T04:19:40;159044.50;;;17.14;96.29
9690;BME280;4884;42.614;23.340;2022-08-01T04:22:06;159140.84;;;17.51;96.19
9690;BME280;4884;42.614;23.340;2022-08-01T04:24:34;159142.22;;;17.51;93.84
9690;BME280;4884;42.614;23.340;2022-08-01T04:27:01;159116.44;;;17.41;96.66
9690;BME280;4884;42.614;23.340;2022-08-01T04:29:31;159199.25;;;17.73;91.96
9690;BME280;4884;42.614;23.340;2022-08-01T04:31:58;159206.00;;;17.75;90.80
9690;BME280;4884;42.614;23.340;2022-08-01T04:34:27;159184.31;;;17.67;95.50
9690;BME280;4884;42.614;23.340;2022-08-01T04:36:55;159150.34;;;17.54;96.54
9690;BME280;4884;42.614;23.340;2022-08-01T04:39:23;159181.56;;;17.66;93.50
9690;BME280;4884;42.614;23.340;2022-08-01T04:41:53;159191.06;;;17.70;94.87
9690;BME280;4884;42.614;23.340;2022-08-01T04:44:22;159273.94;;;18.01;93.27
9690;BME280;4884;42.614;23.340;2022-08-01T04:50:13;159244.06;;;17.90;89.30
9690;BME280;4884;42.614;23.340;2022-08-01T04:52:39;159260.34;;;17.96;91.94
9690;BME280;4884;42.614;23.340;2022-08-01T04:55:07;159305.16;;;18.13;93.25
9690;BME280;4884;42.614;23.340;2022-08-01T04:57:47;159318.75;;;18.18;88.19
9690;BME280;4884;42.614;23.340;2022-08-01T05:00:13;159328.22;;;18.21;86.96
9690;BME280;4884;42.614;23.340;2022-08-01T05:02:38;159416.50;;;18.55;85.48
9690;BME280;4884;42.614;23.340;2022-08-01T05:05:04;159440.94;;;18.64;87.54
9690;BME280;4884;42.614;23.340;2022-08-01T05:07:32;159392.06;;;18.46;89.85
9690;BME280;4884;42.614;23.340;2022-08-01T05:09:57;159435.53;;;18.62;90.85
9690;BME280;4884;42.614;23.340;2022-08-01T05:12:23;159401.53;;;18.49;92.67
9690;BME280;4884;42.614;23.340;2022-08-01T05:14:48;159393.44;;;18.46;85.18
9690;BME280;4884;42.614;23.340;2022-08-01T05:17:14;159472.19;;;18.76;81.94
9690;BME280;4884;42.614;23.340;2022-08-01T05:19:40;159480.38;;;18.79;82.79
9690;BME280;4884;42.614;23.340;2022-08-01T05:22:07;159466.75;;;18.74;81.86
9690;BME280;4884;42.614;23.340;2022-08-01T05:24:34;159473.53;;;18.76;81.63
9690;BME280;4884;42.614;23.340;2022-08-01T05:27:00;159529.31;;;18.97;83.37
9690;BME280;4884;42.614;23.340;2022-08-01T05:29:27;159499.41;;;18.86;82.80
9690;BME280;4884;42.614;23.340;2022-08-01T05:31:53;159575.50;;;19.15;85.21
9690;BME280;4884;42.614;23.340;2022-08-01T05:34:19;159620.31;;;19.32;83.13
9690;BME280;4884;42.614;23.340;2022-08-01T05:36:45;159585.03;;;19.18;79.92
9690;BME280;4884;42.614;23.340;2022-08-01T05:39:12;159567.31;;;19.12;79.90
9690;BME280;4884;42.614;23.340;2022-08-01T05:41:38;159610.84;;;19.28;79.99
9690;BME280;4884;42.614;23.340;2022-08-01T05:44:04;159506.22;;;18.89;80.54
9690;BME280;4884;42.614;23.340;2022-08-01T05:46:31;159632.56;;;19.36;82.33
9690;BME280;4884;42.614;23.340;2022-08-01T05:48:57;159613.53;;;19.29;78.89
9690;BME280;4884;42.614;23.340;2022-08-01T05:51:23;159595.88;;;19.23;82.33
9690;BME280;4884;42.614;23.340;2022-08-01T05:53:49;159598.56;;;19.24;84.03
9690;BME280;4884;42.614;23.340;2022-08-01T05:56:14;159627.13;;;19.34;82.14
9690;BME280;4884;42.614;23.340;2022-08-01T05:58:40;159646.13;;;19.42;81.21
9690;BME280;4884;42.614;23.340;2022-08-01T06:04:27;159606.75;;;19.27;82.25
9690;BME280;4884;42.614;23.340;2022-08-01T06:06:52;159681.47;;;19.55;80.76
9690;BME280;4884;42.614;23.340;2022-08-01T06:09:18;159708.66;;;19.65;81.30
9690;BME280;4884;42.614;23.340;2022-08-01T06:15:06;159793.00;;;19.97;84.47
9690;BME280;4884;42.614;23.340;2022-08-01T06:20:53;159858.25;;;20.22;77.53
9690;BME280;4884;42.614;23.340;2022-08-01T06:23:20;159972.53;;;20.65;75.60
9690;BME280;4884;42.614;23.340;2022-08-01T06:25:46;160044.63;;;20.92;73.02
9690;BME280;4884;42.614;23.340;2022-08-01T06:28:11;160124.88;;;21.22;66.12
9690;BME280;4884;42.614;23.340;2022-08-01T06:30:36;160333.16;;;22.01;66.08
9690;BME280;4884;42.614;23.340;2022-08-01T06:33:02;160206.59;;;21.53;66.24
9690;BME280;4884;42.614;23.340;2022-08-01T06:35:28;160412.16;;;22.30;62.44
9690;BME280;4884;42.614;23.340;2022-08-01T06:37:55;160615.16;;;23.07;64.28
9690;BME280;4884;42.614;23.340;2022-08-01T06:40:21;160563.31;;;22.87;59.08
9690;BME280;4884;42.614;23.340;2022-08-01T06:42:46;160676.47;;;23.30;58.14
9690;BME280;4884;42.614;23.340;2022-08-01T06:45:12;160756.84;;;23.60;57.17
9690;BME280;4884;42.614;23.340;2022-08-01T06:47:39;160778.63;;;23.68;57.58
9690;BME280;4884;42.614;23.340;2022-08-01T06:50:06;160691.47;;;23.36;53.86
9690;BME280;4884;42.614;23.340;2022-08-01T06:52:33;160646.47;;;23.19;56.31
9690;BME280;4884;42.614;23.340;2022-08-01T06:54:59;160609.69;;;23.05;55.77
9690;BME280;4884;42.614;23.340;2022-08-01T06:57:25;160691.47;;;23.36;57.72
9690;BME280;4884;42.614;23.340;2022-08-01T06:59:50;160857.72;;;23.98;58.77
9690;BME280;4884;42.614;23.340;2022-08-01T07:02:16;160890.47;;;24.10;56.05
9690;BME280;4884;42.614;23.340;2022-08-01T07:04:41;160835.91;;;23.90;54.79
9690;BME280;4884;42.614;23.340;2022-08-01T07:07:07;160949.06;;;24.33;54.87
9690;BME280;4884;42.614;23.340;2022-08-01T07:09:32;161054.09;;;24.72;55.14
9690;BME280;4884;42.614;23.340;2022-08-01T07:11:58;160996.84;;;24.50;54.35
9690;BME280;4884;42.614;23.340;2022-08-01T07:14:23;160999.59;;;24.52;53.80
9690;BME280;4884;42.614;23.340;2022-08-01T07:16:49;161006.41;;;24.54;54.12
9690;BME280;4884;42.614;23.340;2022-08-01T07:19:16;160925.91;;;24.24;53.01
9690;BME280;4884;42.614;23.340;2022-08-01T07:21:41;160893.16;;;24.11;53.54
9690;BME280;4884;42.614;23.340;2022-08-01T07:24:09;161069.13;;;24.78;52.11
9690;BME280;4884;42.614;23.340;2022-08-01T07:26:34;160917.72;;;24.21;51.38
9690;BME280;4884;42.614;23.340;2022-08-01T07:29:00;160936.81;;;24.28;53.85
9690;BME280;4884;42.614;23.340;2022-08-01T07:31:25;161048.66;;;24.70;52.35
9690;BME280;4884;42.614;23.340;2022-08-01T07:33:51;161051.34;;;24.71;52.61
9690;BME280;4884;42.614;23.340;2022-08-01T07:36:17;160934.06;;;24.27;51.76
9690;BME280;4884;42.614;23.340;2022-08-01T07:38:43;160740.47;;;23.54;52.82
9690;BME280;4884;42.614;23.340;2022-08-01T07:41:09;160710.50;;;23.43;54.65
9690;BME280;4884;42.614;23.340;2022-08-01T07:43:34;160827.78;;;23.87;54.54
9690;BME280;4884;42.614;23.340;2022-08-01T07:46:04;160949.06;;;24.33;53.55
9690;BME280;4884;42.614;23.340;2022-08-01T07:48:30;160980.44;;;24.44;53.53
9690;BME280;4884;42.614;23.340;2022-08-01T07:50:56;161055.47;;;24.73;53.18
9690;BME280;4884;42.614;23.340;2022-08-01T07:53:21;161125.03;;;24.99;54.14
9690;BME280;4884;42.614;23.340;2022-08-01T07:55:47;161339.28;;;25.79;52.16
9690;BME280;4884;42.614;23.340;2022-08-01T07:58:13;161392.53;;;25.99;50.77
9690;BME280;4884;42.614;23.340;2022-08-01T08:00:39;161081.38;;;24.82;52.58
9690;BME280;4884;42.614;23.340;2022-08-01T08:03:04;161092.28;;;24.86;54.92
9690;BME280;4884;42.614;23.340;2022-08-01T08:05:31;161335.19;;;25.78;51.94
9690;BME280;4884;42.614;23.340;2022-08-01T08:07:57;161494.88;;;26.38;49.77
9690;BME280;4884;42.614;23.340;2022-08-01T08:10:22;161458.03;;;26.24;48.87
9690;BME280;4884;42.614;23.340;2022-08-01T08:12:48;161366.56;;;25.89;48.00
9690;BME280;4884;42.614;23.340;2022-08-01T08:15:13;161413.03;;;26.07;48.30
9690;BME280;4884;42.614;23.340;2022-08-01T08:17:39;161336.53;;;25.78;47.35
9690;BME280;4884;42.614;23.340;2022-08-01T08:20:09;161344.72;;;25.81;47.18
9690;BME280;4884;42.614;23.340;2022-08-01T08:22:34;161534.50;;;26.53;47.25
9690;BME280;4884;42.614;23.340;2022-08-01T08:25:00;161451.22;;;26.21;48.15
9690;BME280;4884;42.614;23.340;2022-08-01T08:27:26;161380.22;;;25.95;47.44
9690;BME280;4884;42.614;23.340;2022-08-01T08:29:51;161631.44;;;26.89;47.27
9690;BME280;4884;42.614;23.340;2022-08-01T08:32:17;161590.47;;;26.74;48.19
9690;BME280;4884;42.614;23.340;2022-08-01T08:34:42;161646.47;;;26.95;45.79
9690;BME280;4884;42.614;23.340;2022-08-01T08:37:08;161613.72;;;26.82;45.96
9690;BME280;4884;42.614;23.340;2022-08-01T08:39:33;161567.28;;;26.65;46.29
9690;BME280;4884;42.614;23.340;2022-08-01T08:41:59;161707.94;;;27.18;45.32
9690;BME280;4884;42.614;23.340;2022-08-01T08:44:25;161814.50;;;27.58;44.99
9690;BME280;4884;42.614;23.340;2022-08-01T08:46:51;161509.91;;;26.43;44.75
9690;BME280;4884;42.614;23.340;2022-08-01T08:49:37;161692.91;;;27.12;46.19
9690;BME280;4884;42.614;23.340;2022-08-01T08:52:04;161702.47;;;27.16;43.72
9690;BME280;4884;42.614;23.340;2022-08-01T08:54:30;161538.59;;;26.54;44.97
9690;BME280;4884;42.614;23.340;2022-08-01T08:56:59;161679.22;;;27.07;45.10
9690;BME280;4884;42.614;23.340;2022-08-01T08:59:24;161908.81;;;27.93;44.76
9690;BME280;4884;42.614;23.340;2022-08-01T09:01:50;162086.53;;;28.60;43.75
9690;BME280;4884;42.614;23.340;2022-08-01T09:04:17;161604.16;;;26.79;45.12
9690;BME280;4884;42.614;23.340;2022-08-01T09:06:42;161706.59;;;27.17;45.68
9690;BME280;4884;42.614;23.340;2022-08-01T09:09:09;161740.75;;;27.30;45.05
9690;BME280;4884;42.614;23.340;2022-08-01T09:11:35;161895.19;;;27.88;44.24
9690;BME280;4884;42.614;23.340;2022-08-01T09:16:35;162063.31;;;28.51;41.76
9690;BME280;4884;42.614;23.340;2022-08-01T09:19:15;161966.22;;;28.15;40.64
9690;BME280;4884;42.614;23.340;2022-08-01T09:21:57;162067.38;;;28.53;42.04
9690;BME280;4884;42.614;23.340;2022-08-01T09:24:25;162009.97;;;28.31;42.06
9690;BME280;4884;42.614;23.340;2022-08-01T09:26:51;162089.28;;;28.61;42.23
9690;BME280;4884;42.614;23.340;2022-08-01T09:29:21;162143.94;;;28.81;41.89
9690;BME280;4884;42.614;23.340;2022-08-01T09:31:47;162284.81;;;29.34;40.74
9690;BME280;4884;42.614;23.340;2022-08-01T09:34:12;162227.41;;;29.13;41.14
9690;BME280;4884;42.614;23.340;2022-08-01T09:39:14;162511.91;;;30.19;40.35
9690;BME280;4884;42.614;23.340;2022-08-01T09:41:40;162191.78;;;28.99;40.01
9690;BME280;4884;42.614;23.340;2022-08-01T09:44:05;162206.81;;;29.05;40.68
9690;BME280;4884;42.614;23.340;2022-08-01T09:46:31;162403.88;;;29.79;40.81
9690;BME280;4884;42.614;23.340;2022-08-01T09:49:02;162499.59;;;30.15;38.87
9690;BME280;4884;42.614;23.340;2022-08-01T09:51:38;162606.34;;;30.55;40.32
9690;BME280;4884;42.614;23.340;2022-08-01T09:54:06;162453.09;;;29.97;39.03
9690;BME280;4884;42.614;23.340;2022-08-01T09:56:39;162462.66;;;30.01;41.49
9690;BME280;4884;42.614;23.340;2022-08-01T09:59:05;162390.16;;;29.74;38.51
9690;BME280;4884;42.614;23.340;2022-08-01T10:01:49;162403.88;;;29.79;40.69
9690;BME280;4884;42.614;23.340;2022-08-01T10:04:15;162360.00;;;29.62;41.11
9690;BME280;4884;42.614;23.340;2022-08-01T10:06:43;162491.38;;;30.12;40.82
9690;BME280;4884;42.614;23.340;2022-08-01T10:09:10;162498.25;;;30.14;40.81
9690;BME280;4884;42.614;23.340;2022-08-01T10:11:36;162366.88;;;29.65;41.03
9690;BME280;4884;42.614;23.340;2022-08-01T10:14:04;162403.88;;;29.79;41.64
9690;BME280;4884;42.614;23.340;2022-08-01T10:16:30;162329.97;;;29.51;38.79
9690;BME280;4884;42.614;23.340;2022-08-01T10:18:57;162488.66;;;30.11;39.26
9690;BME280;4884;42.614;23.340;2022-08-01T10:21:26;162433.91;;;29.90;37.96
9690;BME280;4884;42.614;23.340;2022-08-01T10:23:54;162133.00;;;28.77;41.75
9690;BME280;4884;42.614;23.340;2022-08-01T10:26:19;162416.16;;;29.84;39.52
9690;BME280;4884;42.614;23.340;2022-08-01T10:28:48;162465.38;;;30.02;39.47
9690;BME280;4884;42.614;23.340;2022-08-01T10:31:13;162598.16;;;30.52;40.10
9690;BME280;4884;42.614;23.340;2022-08-01T10:33:40;162537.91;;;30.29;39.55
9690;BME280;4884;42.614;23.340;2022-08-01T10:36:07;162510.53;;;30.19;38.28
9690;BME280;4884;42.614;23.340;2022-08-01T10:38:34;162554.34;;;30.35;39.61
9690;BME280;4884;42.614;23.340;2022-08-01T10:41:02;162683.00;;;30.84;37.60
9690;BME280;4884;42.614;23.340;2022-08-01T10:43:28;162635.13;;;30.66;36.92
9690;BME280;4884;42.614;23.340;2022-08-01T10:45:54;162678.88;;;30.82;37.22
9690;BME280;4884;42.614;23.340;2022-08-01T10:48:46;162746.00;;;31.07;35.85
9690;BME280;4884;42.614;23.340;2022-08-01T10:51:14;162517.38;;;30.21;38.58
9690;BME280;4884;42.614;23.340;2022-08-01T10:53:52;162647.41;;;30.70;37.27
9690;BME280;4884;42.614;23.340;2022-08-01T10:56:18;162468.13;;;30.03;37.07
9690;BME280;4884;42.614;23.340;2022-08-01T10:58:46;162472.25;;;30.05;36.86
9690;BME280;4884;42.614;23.340;2022-08-01T11:01:15;162637.81;;;30.67;37.51
9690;BME280;4884;42.614;23.340;2022-08-01T11:03:43;162579.00;;;30.45;37.01
9690;BME280;4884;42.614;23.340;2022-08-01T11:06:16;162670.66;;;30.79;38.24
9690;BME280;4884;42.614;23.340;2022-08-01T11:08:43;162618.69;;;30.59;36.41
9690;BME280;4884;42.614;23.340;2022-08-01T11:11:15;162531.06;;;30.27;36.44
9690;BME280;4884;42.614;23.340;2022-08-01T11:16:34;162726.84;;;31.00;38.03
9690;BME280;4884;42.614;23.340;2022-08-01T11:19:00;162622.75;;;30.61;37.82
9690;BME280;4884;42.614;23.340;2022-08-01T11:27:20;162824.03;;;31.36;36.89
9690;BME280;4884;42.614;23.340;2022-08-01T11:32:50;162688.47;;;30.86;39.04
9690;BME280;4884;42.614;23.340;2022-08-01T11:35:17;162819.94;;;31.35;37.93
9690;BME280;4884;42.614;23.340;2022-08-01T11:37:44;162763.78;;;31.14;37.47
9690;BME280;4884;42.614;23.340;2022-08-01T11:40:20;162474.97;;;30.06;38.73
9690;BME280;4884;42.614;23.340;2022-08-01T11:42:47;162154.88;;;28.86;40.13
9690;BME280;4884;42.614;23.340;2022-08-01T11:45:13;161804.94;;;27.54;42.69
9690;BME280;4884;42.614;23.340;2022-08-01T11:47:49;161736.66;;;27.29;42.42
9690;BME280;4884;42.614;23.340;2022-08-01T11:53:04;161706.59;;;27.17;43.48
9690;BME280;4884;42.614;23.340;2022-08-01T11:55:30;161936.13;;;28.03;41.43
9690;BME280;4884;42.614;23.340;2022-08-01T11:58:15;162245.16;;;29.19;41.41
9690;BME280;4884;42.614;23.340;2022-08-01T12:00:41;162485.91;;;30.10;38.46
9690;BME280;4884;42.614;23.340;2022-08-01T12:03:14;162492.78;;;30.12;41.25
9690;BME280;4884;42.614;23.340;2022-08-01T12:05:44;162332.69;;;29.52;41.65
9690;BME280;4884;42.614;23.340;2022-08-01T12:08:09;162557.13;;;30.36;41.16
9690;BME280;4884;42.614;23.340;2022-08-01T12:10:35;162650.19;;;30.71;39.50
9690;BME280;4884;42.614;23.340;2022-08-01T12:13:06;162494.13;;;30.13;38.99
9690;BME280;4884;42.614;23.340;2022-08-01T12:15:34;162444.84;;;29.94;39.97
9690;BME280;4884;42.614;23.340;2022-08-01T12:18:02;162438.03;;;29.92;39.59
9690;BME280;4884;42.614;23.340;2022-08-01T12:20:30;162505.06;;;30.17;39.07
9690;BME280;4884;42.614;23.340;2022-08-01T12:22:57;162548.88;;;30.33;40.50
9690;BME280;4884;42.614;23.340;2022-08-01T12:25:23;162462.66;;;30.01;38.55
9690;BME280;4884;42.614;23.340;2022-08-01T12:27:49;162480.44;;;30.08;38.89
9690;BME280;4884;42.614;23.340;2022-08-01T12:30:17;162488.66;;;30.11;40.06
9690;BME280;4884;42.614;23.340;2022-08-01T12:32:45;162568.06;;;30.40;38.98
9690;BME280;4884;42.614;23.340;2022-08-01T12:35:21;162583.13;;;30.46;39.07
9690;BME280;4884;42.614;23.340;2022-08-01T12:37:55;162443.50;;;29.94;39.06
9690;BME280;4884;42.614;23.340;2022-08-01T12:40:25;162429.84;;;29.89;39.22
9690;BME280;4884;42.614;23.340;2022-08-01T12:42:53;162468.13;;;30.03;38.96
9690;BME280;4884;42.614;23.340;2022-08-01T12:45:42;162387.47;;;29.73;38.33
9690;BME280;4884;42.614;23.340;2022-08-01T12:48:10;162406.56;;;29.80;40.85
9690;BME280;4884;42.614;23.340;2022-08-01T12:50:41;162514.66;;;30.20;39.43
9690;BME280;4884;42.614;23.340;2022-08-01T12:53:08;162666.59;;;30.77;38.59
9690;BME280;4884;42.614;23.340;2022-08-01T12:55:49;162780.22;;;31.20;38.32
9690;BME280;4884;42.614;23.340;2022-08-01T12:58:18;162824.03;;;31.36;38.77
9690;BME280;4884;42.614;23.340;2022-08-01T13:00:46;162643.28;;;30.69;38.57
9690;BME280;4884;42.614;23.340;2022-08-01T13:03:19;162672.06;;;30.79;38.26
9690;BME280;4884;42.614;23.340;2022-08-01T13:05:52;162646.06;;;30.70;37.51
9690;BME280;4884;42.614;23.340;2022-08-01T13:08:26;162301.22;;;29.40;39.78
9690;BME280;4884;42.614;23.340;2022-08-01T13:11:20;162379.19;;;29.70;39.76
9690;BME280;4884;42.614;23.340;2022-08-01T13:13:48;162346.38;;;29.57;38.60
9690;BME280;4884;42.614;23.340;2022-08-01T13:16:18;162444.84;;;29.94;39.14
9690;BME280;4884;42.614;23.340;2022-08-01T13:18:52;162533.78;;;30.28;37.13
9690;BME280;4884;42.614;23.340;2022-08-01T13:21:23;162546.19;;;30.32;37.69
9690;BME280;4884;42.614;23.340;2022-08-01T13:29:17;162354.53;;;29.60;36.58
9690;BME280;4884;42.614;23.340;2022-08-01T13:31:43;162403.88;;;29.79;39.72
9690;BME280;4884;42.614;23.340;2022-08-01T13:34:09;162179.50;;;28.95;38.05
9690;BME280;4884;42.614;23.340;2022-08-01T13:36:35;162373.72;;;29.68;38.47
9690;BME280;4884;42.614;23.340;2022-08-01T13:39:01;162474.97;;;30.06;38.96
9690;BME280;4884;42.614;23.340;2022-08-01T13:41:46;162553.00;;;30.35;38.45
9690;BME280;4884;42.614;23.340;2022-08-01T13:44:12;162313.50;;;29.45;40.71
9690;BME280;4884;42.614;23.340;2022-08-01T13:46:39;162466.78;;;30.03;40.25
9690;BME280;4884;42.614;23.340;2022-08-01T13:49:06;162485.91;;;30.10;39.68